Time;durP1;ratioP1;P1;durP2;ratioP2;P2;SDS_P1;SDS_P2;PMS_P1;PMS_P2;Temp;Humidity;BMP_temperature;BMP_pressure;BME280_temperature;BME280_humidity;BME280_pressure;Samples;Min_cycle;Max_cycle;Signal;HPM_P1;HPM_P2
2024/01/24 00:01:33;;;;;;;15.00;4.20;;;;;;;;;;5049313;28;20029;-64
2024/01/24 00:03:59;;;;;;;12.63;4.03;;;;;;;;;;5047743;28;20033;-64
2024/01/24 00:06:25;;;;;;;14.85;4.40;;;;;;;;;;5048883;28;20037;-64
2024/01/24 00:08:51;;;;;;;12.80;4.50;;;;;;;;;;5052989;28;20035;-64
2024/01/24 00:11:17;;;;;;;16.15;4.78;;;;;;;;;;5049083;28;20036;-64
2024/01/24 00:13:42;;;;;;;12.07;4.63;;;;;;;;;;5051573;28;20041;-64
2024/01/24 00:16:08;;;;;;;12.95;5.78;;;;;;;;;;5053046;28;20056;-64
2024/01/24 00:18:34;;;;;;;13.50;5.90;;;;;;;;;;5047130;28;20645;-64
2024/01/24 00:20:59;;;;;;;16.20;5.32;;;;;;;;;;5052716;28;20478;-64
2024/01/24 00:23:24;;;;;;;13.65;5.55;;;;;;;;;;5048284;28;20057;-64
2024/01/24 00:25:51;;;;;;;14.07;5.38;;;;;;;;;;5051881;28;20052;-64
2024/01/24 00:28:16;;;;;;;10.48;4.55;;;;;;;;;;5049549;28;20181;-64
2024/01/24 00:30:43;;;;;;;12.32;5.05;;;;;;;;;;5049956;28;20056;-64
2024/01/24 00:33:10;;;;;;;14.68;5.07;;;;;;;;;;5044397;28;20505;-65
2024/01/24 00:35:36;;;;;;;12.27;4.78;;;;;;;;;;5050635;28;20086;-64
2024/01/24 00:38:01;;;;;;;7.82;4.35;;;;;;;;;;5050971;28;20104;-64
2024/01/24 00:40:26;;;;;;;10.82;5.32;;;;;;;;;;5049210;28;20029;-64
2024/01/24 00:42:52;;;;;;;9.52;4.88;;;;;;;;;;5048885;28;20028;-63
2024/01/24 00:45:17;;;;;;;8.07;4.60;;;;;;;;;;5049823;28;20029;-64
2024/01/24 00:47:43;;;;;;;7.70;4.32;;;;;;;;;;5046794;28;21447;-63
2024/01/24 00:50:09;;;;;;;12.25;4.85;;;;;;;;;;5051141;28;20037;-63
2024/01/24 00:52:34;;;;;;;11.13;4.70;;;;;;;;;;5048946;28;20110;-64
2024/01/24 00:55:00;;;;;;;8.55;3.90;;;;;;;;;;5045454;28;20504;-64
2024/01/24 00:57:25;;;;;;;11.88;4.45;;;;;;;;;;5037786;28;20021;-64
2024/01/24 00:59:51;;;;;;;8.23;4.28;;;;;;;;;;5049174;28;20517;-66
2024/01/24 01:02:16;;;;;;;8.82;4.28;;;;;;;;;;5048118;28;20056;-65
2024/01/24 01:04:43;;;;;;;9.05;4.40;;;;;;;;;;5042343;28;20040;-64
2024/01/24 01:07:09;;;;;;;7.65;4.32;;;;;;;;;;5050383;28;20393;-65
2024/01/24 01:09:35;;;;;;;10.40;4.00;;;;;;;;;;5049957;28;20037;-66
2024/01/24 01:12:01;;;;;;;15.20;3.88;;;;;;;;;;5048488;28;20075;-65
2024/01/24 01:14:27;;;;;;;9.52;4.18;;;;;;;;;;5044822;28;20473;-64
2024/01/24 01:16:52;;;;;;;8.38;4.50;;;;;;;;;;5042511;28;20033;-64
2024/01/24 01:19:17;;;;;;;7.40;3.92;;;;;;;;;;5051394;28;20076;-64
2024/01/24 01:21:43;;;;;;;10.50;4.93;;;;;;;;;;5050931;28;20037;-65
2024/01/24 01:24:09;;;;;;;9.73;4.57;;;;;;;;;;5043057;28;20022;-64
2024/01/24 01:26:34;;;;;;;8.48;4.63;;;;;;;;;;5030798;28;20079;-65
2024/01/24 01:29:00;;;;;;;8.30;4.40;;;;;;;;;;5032857;28;20033;-64
2024/01/24 01:31:25;;;;;;;8.75;4.32;;;;;;;;;;5050810;28;20040;-64
2024/01/24 01:33:51;;;;;;;7.95;4.32;;;;;;;;;;5051532;28;20087;-64
2024/01/24 01:36:16;;;;;;;8.05;3.67;;;;;;;;;;5051803;28;20466;-64
2024/01/24 01:38:41;;;;;;;6.60;3.45;;;;;;;;;;5051002;28;20037;-64
2024/01/24 01:41:07;;;;;;;7.85;3.72;;;;;;;;;;5039070;28;20029;-64
2024/01/24 01:43:33;;;;;;;6.60;3.10;;;;;;;;;;5050463;28;20037;-64
2024/01/24 01:46:06;;;;;;;6.65;3.22;;;;;;;;;;5051347;28;20021;-64
2024/01/24 01:48:33;;;;;;;8.85;3.20;;;;;;;;;;5054815;28;20112;-64
2024/01/24 01:50:58;;;;;;;5.43;2.90;;;;;;;;;;5055287;28;20104;-63
2024/01/24 01:53:24;;;;;;;5.40;2.60;;;;;;;;;;5054541;28;20556;-63
2024/01/24 01:55:50;;;;;;;5.78;2.33;;;;;;;;;;5055241;28;20029;-64
2024/01/24 01:58:16;;;;;;;6.70;2.80;;;;;;;;;;5054590;28;20032;-63
2024/01/24 02:00:43;;;;;;;6.32;2.15;;;;;;;;;;5052617;28;20029;-64
2024/01/24 02:03:08;;;;;;;5.97;2.90;;;;;;;;;;5053814;28;20458;-65
2024/01/24 02:05:33;;;;;;;6.95;2.65;;;;;;;;;;5052548;28;20112;-66
2024/01/24 02:07:59;;;;;;;6.05;2.70;;;;;;;;;;5054913;28;20074;-66
2024/01/24 02:10:24;;;;;;;5.50;2.55;;;;;;;;;;5049512;28;20048;-66
2024/01/24 02:12:49;;;;;;;5.15;2.40;;;;;;;;;;5055106;28;20032;-65
2024/01/24 02:15:15;;;;;;;5.88;2.70;;;;;;;;;;5044165;28;20431;-66
2024/01/24 02:17:41;;;;;;;5.43;3.00;;;;;;;;;;5054103;28;20259;-67
2024/01/24 02:20:09;;;;;;;4.03;2.10;;;;;;;;;;5050119;28;20053;-68
2024/01/24 02:22:35;;;;;;;5.20;2.53;;;;;;;;;;5052978;28;20048;-67
2024/01/24 02:25:02;;;;;;;5.53;2.10;;;;;;;;;;5052733;28;20457;-65
2024/01/24 02:27:27;;;;;;;3.72;1.80;;;;;;;;;;5047052;28;20068;-65
2024/01/24 02:29:56;;;;;;;6.05;2.17;;;;;;;;;;5036546;28;20119;-64
2024/01/24 02:32:22;;;;;;;4.18;2.10;;;;;;;;;;5052662;28;20500;-63
2024/01/24 02:34:47;;;;;;;4.15;1.90;;;;;;;;;;5052732;28;20032;-63
2024/01/24 02:37:13;;;;;;;5.38;1.77;;;;;;;;;;5053401;28;20068;-63
2024/01/24 02:39:38;;;;;;;6.35;1.60;;;;;;;;;;5048835;28;20422;-63
2024/01/24 02:42:03;;;;;;;3.40;1.30;;;;;;;;;;5044543;28;20060;-63
2024/01/24 02:44:29;;;;;;;3.88;1.40;;;;;;;;;;5052813;28;20029;-64
2024/01/24 02:46:54;;;;;;;2.65;1.50;;;;;;;;;;5050873;28;20048;-64
2024/01/24 02:49:20;;;;;;;2.88;1.80;;;;;;;;;;5053187;28;20461;-64
2024/01/24 02:51:45;;;;;;;2.85;1.30;;;;;;;;;;5046980;28;20033;-64
2024/01/24 02:54:11;;;;;;;2.95;1.42;;;;;;;;;;5049420;28;20401;-64
2024/01/24 02:56:37;;;;;;;2.50;1.60;;;;;;;;;;5053262;28;20029;-64
2024/01/24 02:59:03;;;;;;;3.28;1.60;;;;;;;;;;5049078;28;20060;-64
2024/01/24 03:01:28;;;;;;;2.95;1.50;;;;;;;;;;5050367;28;20060;-64
2024/01/24 03:03:53;;;;;;;1.95;1.48;;;;;;;;;;5051104;28;20033;-64
2024/01/24 03:06:19;;;;;;;3.63;1.48;;;;;;;;;;5053042;28;20037;-64
2024/01/24 03:08:54;;;;;;;2.85;1.38;;;;;;;;;;5050105;28;20039;-64
2024/01/24 03:11:20;;;;;;;2.70;1.55;;;;;;;;;;5049957;28;20036;-63
2024/01/24 03:13:45;;;;;;;2.88;1.55;;;;;;;;;;5050193;28;20029;-64
2024/01/24 03:16:11;;;;;;;4.00;1.70;;;;;;;;;;5041924;28;20029;-63
2024/01/24 03:18:37;;;;;;;2.13;1.30;;;;;;;;;;5053025;28;20037;-64
2024/01/24 03:21:05;;;;;;;1.88;1.30;;;;;;;;;;5049991;28;20037;-64
2024/01/24 03:23:31;;;;;;;1.63;1.33;;;;;;;;;;5053104;28;20157;-63
2024/01/24 03:25:56;;;;;;;2.22;1.45;;;;;;;;;;5049861;28;20128;-64
2024/01/24 03:28:21;;;;;;;2.47;1.63;;;;;;;;;;5053692;28;20029;-64
2024/01/24 03:30:47;;;;;;;2.63;1.70;;;;;;;;;;5048051;28;20032;-63
2024/01/24 03:33:12;;;;;;;1.77;1.50;;;;;;;;;;5052667;28;20037;-64
2024/01/24 03:35:37;;;;;;;2.75;1.70;;;;;;;;;;5052587;28;20108;-65
2024/01/24 03:38:04;;;;;;;2.55;1.40;;;;;;;;;;5049895;28;20382;-64
2024/01/24 03:40:30;;;;;;;2.08;1.50;;;;;;;;;;5051303;28;20028;-64
2024/01/24 03:42:56;;;;;;;2.63;1.60;;;;;;;;;;5049929;28;20122;-64
2024/01/24 03:45:21;;;;;;;1.75;1.50;;;;;;;;;;5051227;28;20029;-63
2024/01/24 03:47:48;;;;;;;2.67;1.90;;;;;;;;;;5048819;28;20159;-64
2024/01/24 03:50:14;;;;;;;1.65;1.55;;;;;;;;;;5052102;28;20446;-64
2024/01/24 03:52:39;;;;;;;1.83;1.55;;;;;;;;;;5049223;28;20045;-64
2024/01/24 03:55:05;;;;;;;2.50;1.75;;;;;;;;;;5053282;28;20381;-63
2024/01/24 03:57:31;;;;;;;4.97;1.70;;;;;;;;;;5042474;28;20041;-63
2024/01/24 03:59:56;;;;;;;2.60;1.60;;;;;;;;;;5051469;28;20037;-62
2024/01/24 04:02:21;;;;;;;2.30;1.77;;;;;;;;;;5053060;28;20100;-62
2024/01/24 04:04:47;;;;;;;2.47;1.60;;;;;;;;;;5041395;28;20033;-63
2024/01/24 04:07:12;;;;;;;2.88;1.75;;;;;;;;;;5035665;28;20079;-63
2024/01/24 04:09:38;;;;;;;1.77;1.42;;;;;;;;;;5031855;28;20378;-64
2024/01/24 04:12:04;;;;;;;3.28;1.80;;;;;;;;;;5033091;28;20035;-64
2024/01/24 04:14:29;;;;;;;6.35;1.65;;;;;;;;;;5047301;28;20037;-64
2024/01/24 04:16:54;;;;;;;2.67;1.77;;;;;;;;;;5052679;28;20044;-65
2024/01/24 04:19:20;;;;;;;1.65;1.45;;;;;;;;;;5052840;28;20041;-64
2024/01/24 04:21:45;;;;;;;2.85;1.30;;;;;;;;;;5049378;28;20032;-63
2024/01/24 04:24:10;;;;;;;3.40;1.60;;;;;;;;;;5044318;28;20057;-62
2024/01/24 04:26:36;;;;;;;1.63;1.17;;;;;;;;;;5046912;28;20032;-63
2024/01/24 04:29:02;;;;;;;1.45;1.02;;;;;;;;;;5050282;28;20040;-63
2024/01/24 04:31:27;;;;;;;1.55;1.02;;;;;;;;;;5049284;28;20029;-64
2024/01/24 04:33:52;;;;;;;1.90;0.80;;;;;;;;;;5044182;28;20074;-63
2024/01/24 04:36:18;;;;;;;2.15;0.90;;;;;;;;;;5032464;28;20061;-64
2024/01/24 04:38:43;;;;;;;4.05;1.55;;;;;;;;;;5030080;28;20036;-64
2024/01/24 04:41:09;;;;;;;5.97;1.30;;;;;;;;;;5037579;28;20037;-64
2024/01/24 04:43:35;;;;;;;4.78;1.23;;;;;;;;;;5051434;28;20116;-64
2024/01/24 04:46:00;;;;;;;2.25;1.17;;;;;;;;;;5051961;28;20462;-64
2024/01/24 04:48:25;;;;;;;4.78;1.20;;;;;;;;;;5052323;28;20033;-64
2024/01/24 04:50:51;;;;;;;2.33;1.10;;;;;;;;;;5049594;28;20104;-64
2024/01/24 04:53:16;;;;;;;2.38;1.10;;;;;;;;;;5052514;28;20082;-64
2024/01/24 04:55:42;;;;;;;2.05;1.13;;;;;;;;;;5051226;28;20024;-64
2024/01/24 04:58:07;;;;;;;1.88;1.10;;;;;;;;;;5051715;28;20500;-64
2024/01/24 05:00:32;;;;;;;5.47;1.20;;;;;;;;;;5051341;28;20096;-63
2024/01/24 05:02:58;;;;;;;4.18;1.02;;;;;;;;;;5031982;28;20035;-64
2024/01/24 05:05:23;;;;;;;3.20;1.25;;;;;;;;;;5032266;28;20363;-65
2024/01/24 05:07:49;;;;;;;4.25;1.20;;;;;;;;;;5031297;28;20057;-65
2024/01/24 05:10:14;;;;;;;2.85;1.10;;;;;;;;;;5032242;28;20485;-65
2024/01/24 05:12:40;;;;;;;3.55;1.40;;;;;;;;;;5043952;28;20029;-65
2024/01/24 05:15:08;;;;;;;5.22;1.27;;;;;;;;;;5051930;28;20033;-66
2024/01/24 05:17:33;;;;;;;5.65;1.38;;;;;;;;;;5049908;28;20029;-65
2024/01/24 05:19:58;;;;;;;3.75;1.55;;;;;;;;;;5050506;28;20461;-65
2024/01/24 05:22:24;;;;;;;5.10;1.40;;;;;;;;;;5036024;28;20063;-65
2024/01/24 05:24:49;;;;;;;5.97;1.40;;;;;;;;;;5031159;28;20840;-65
2024/01/24 05:27:15;;;;;;;5.10;1.40;;;;;;;;;;5031994;28;20040;-64
2024/01/24 05:29:41;;;;;;;4.35;1.33;;;;;;;;;;5030937;28;20026;-65
2024/01/24 05:32:06;;;;;;;4.68;1.50;;;;;;;;;;5031709;28;20478;-66
2024/01/24 05:34:32;;;;;;;7.35;1.50;;;;;;;;;;5044114;28;20037;-65
2024/01/24 05:36:57;;;;;;;5.68;1.30;;;;;;;;;;5050962;28;20123;-65
2024/01/24 05:39:23;;;;;;;5.50;1.65;;;;;;;;;;5051354;28;20064;-64
2024/01/24 05:41:48;;;;;;;4.93;1.50;;;;;;;;;;5036006;28;20171;-65
2024/01/24 05:44:13;;;;;;;7.03;1.63;;;;;;;;;;5048654;28;20427;-65
2024/01/24 05:46:39;;;;;;;2.78;1.20;;;;;;;;;;5050687;28;20025;-65
2024/01/24 05:49:04;;;;;;;4.30;1.45;;;;;;;;;;5051449;28;20493;-63
2024/01/24 05:51:29;;;;;;;4.15;1.25;;;;;;;;;;5040052;28;20030;-64
2024/01/24 05:53:55;;;;;;;7.05;1.75;;;;;;;;;;5030816;28;20474;-64
2024/01/24 05:56:20;;;;;;;7.30;1.92;;;;;;;;;;5047228;28;20033;-65
2024/01/24 05:58:46;;;;;;;2.50;1.30;;;;;;;;;;5030364;28;20436;-66
2024/01/24 06:01:12;;;;;;;7.05;1.88;;;;;;;;;;5050757;28;20080;-65
2024/01/24 06:03:37;;;;;;;10.02;2.00;;;;;;;;;;5050946;28;20056;-64
2024/01/24 06:06:03;;;;;;;5.47;2.10;;;;;;;;;;5051386;28;20025;-65
2024/01/24 06:08:32;;;;;;;12.00;2.13;;;;;;;;;;5050031;28;20029;-65
2024/01/24 06:10:57;;;;;;;6.68;2.13;;;;;;;;;;5048586;28;20036;-65
2024/01/24 06:13:23;;;;;;;9.00;2.03;;;;;;;;;;5051419;28;20029;-65
2024/01/24 06:15:50;;;;;;;9.55;2.15;;;;;;;;;;5050491;28;20083;-65
2024/01/24 06:18:15;;;;;;;10.75;2.20;;;;;;;;;;5051291;28;20106;-65
2024/01/24 06:20:41;;;;;;;10.40;2.47;;;;;;;;;;5033766;28;20413;-65
2024/01/24 06:23:06;;;;;;;13.10;2.50;;;;;;;;;;5030962;28;20129;-65
2024/01/24 06:25:31;;;;;;;12.48;2.20;;;;;;;;;;5031487;28;20030;-66
2024/01/24 06:27:57;;;;;;;9.90;2.38;;;;;;;;;;5030430;28;20744;-65
2024/01/24 06:30:22;;;;;;;14.75;2.70;;;;;;;;;;5046720;28;20037;-65
2024/01/24 06:32:48;;;;;;;10.38;2.50;;;;;;;;;;5030370;28;20160;-65
2024/01/24 06:35:13;;;;;;;13.25;3.10;;;;;;;;;;5034592;28;20120;-62
2024/01/24 06:37:38;;;;;;;14.50;3.00;;;;;;;;;;5037208;28;20458;-63
2024/01/24 06:40:05;;;;;;;13.10;2.75;;;;;;;;;;5054843;28;20055;-64
2024/01/24 06:42:31;;;;;;;15.07;2.78;;;;;;;;;;5036717;28;20025;-64
2024/01/24 06:44:56;;;;;;;11.05;2.33;;;;;;;;;;5053939;28;20135;-64
2024/01/24 06:47:22;;;;;;;12.20;2.10;;;;;;;;;;5053875;28;20446;-64
2024/01/24 06:49:47;;;;;;;16.05;2.40;;;;;;;;;;5053708;28;20057;-64
2024/01/24 06:52:12;;;;;;;13.65;2.40;;;;;;;;;;5054667;28;20404;-66
2024/01/24 06:54:38;;;;;;;11.88;3.25;;;;;;;;;;5054014;28;20033;-65
2024/01/24 06:57:03;;;;;;;12.27;2.40;;;;;;;;;;5054230;28;20115;-64
2024/01/24 06:59:30;;;;;;;16.25;2.72;;;;;;;;;;5034716;28;20407;-65
2024/01/24 07:01:56;;;;;;;11.15;2.38;;;;;;;;;;5033695;28;20532;-65
2024/01/24 07:04:21;;;;;;;14.68;2.92;;;;;;;;;;5035019;28;20497;-65
2024/01/24 07:06:46;;;;;;;11.52;2.58;;;;;;;;;;5033635;28;20043;-66
2024/01/24 07:09:12;;;;;;;15.93;3.15;;;;;;;;;;5065389;28;20040;-66
2024/01/24 07:11:39;;;;;;;10.30;2.40;;;;;;;;;;5054106;28;20025;-65
2024/01/24 07:14:05;;;;;;;8.82;2.25;;;;;;;;;;5054039;28;20029;-66
2024/01/24 07:16:30;;;;;;;10.98;3.35;;;;;;;;;;5054302;28;20159;-67
2024/01/24 07:18:56;;;;;;;13.98;2.72;;;;;;;;;;5040112;28;20041;-66
2024/01/24 07:21:21;;;;;;;10.05;2.78;;;;;;;;;;5052824;28;20108;-67
2024/01/24 07:23:46;;;;;;;15.88;3.00;;;;;;;;;;5051369;28;20203;-65
2024/01/24 07:26:12;;;;;;;14.60;3.00;;;;;;;;;;5054256;28;20028;-66
2024/01/24 07:28:38;;;;;;;15.13;3.15;;;;;;;;;;5042137;28;20138;-65
2024/01/24 07:31:03;;;;;;;15.48;2.55;;;;;;;;;;5033408;28;20034;-66
2024/01/24 07:33:29;;;;;;;17.77;3.88;;;;;;;;;;5033985;28;20028;-66
2024/01/24 07:35:54;;;;;;;13.10;2.63;;;;;;;;;;5033197;28;20454;-66
2024/01/24 07:38:20;;;;;;;24.30;3.80;;;;;;;;;;5045453;28;20041;-67
2024/01/24 07:40:45;;;;;;;14.73;2.70;;;;;;;;;;5052787;28;20033;-66
2024/01/24 07:43:11;;;;;;;11.40;2.80;;;;;;;;;;5052365;28;20037;-65
2024/01/24 07:45:36;;;;;;;17.20;3.53;;;;;;;;;;5053144;28;20036;-67
2024/01/24 07:48:02;;;;;;;18.30;3.47;;;;;;;;;;5042323;28;20258;-66
2024/01/24 07:50:27;;;;;;;16.60;2.83;;;;;;;;;;5033499;28;20025;-66
2024/01/24 07:52:53;;;;;;;15.40;3.28;;;;;;;;;;5032692;28;20458;-68
2024/01/24 07:55:18;;;;;;;16.02;3.25;;;;;;;;;;5033327;28;20029;-68
2024/01/24 07:57:43;;;;;;;19.58;4.18;;;;;;;;;;5038905;28;20428;-66
2024/01/24 08:00:16;;;;;;;16.58;3.92;;;;;;;;;;5053137;28;20029;-68
2024/01/24 08:02:42;;;;;;;13.57;3.40;;;;;;;;;;5053047;28;20032;-65
2024/01/24 08:05:08;;;;;;;22.10;3.47;;;;;;;;;;5052749;28;20116;-67
2024/01/24 08:07:33;;;;;;;23.40;4.32;;;;;;;;;;5047314;28;20524;-67
2024/01/24 08:09:59;;;;;;;20.45;3.70;;;;;;;;;;5032018;28;20033;-68
2024/01/24 08:12:24;;;;;;;17.88;3.35;;;;;;;;;;5033209;28;20042;-67
2024/01/24 08:14:49;;;;;;;13.95;2.83;;;;;;;;;;5032314;28;20037;-66
2024/01/24 08:17:15;;;;;;;17.13;3.63;;;;;;;;;;5032990;28;20108;-67
2024/01/24 08:19:40;;;;;;;17.48;3.85;;;;;;;;;;5032834;28;20033;-68
2024/01/24 08:22:06;;;;;;;15.20;3.85;;;;;;;;;;5031947;28;20093;-70
2024/01/24 08:24:31;;;;;;;19.83;3.60;;;;;;;;;;5032429;28;20053;-70
2024/01/24 08:26:57;;;;;;;17.67;3.85;;;;;;;;;;5031832;28;20458;-68
2024/01/24 08:29:25;;;;;;;15.85;3.33;;;;;;;;;;5032568;28;20029;-68
2024/01/24 08:31:51;;;;;;;15.43;3.13;;;;;;;;;;5031790;28;20037;-68
2024/01/24 08:34:17;;;;;;;20.63;3.75;;;;;;;;;;5032578;28;20030;-68
2024/01/24 08:36:43;;;;;;;21.20;4.32;;;;;;;;;;5032109;28;20473;-66
2024/01/24 08:39:08;;;;;;;18.58;3.15;;;;;;;;;;5031732;28;20033;-67
2024/01/24 08:41:34;;;;;;;17.15;3.20;;;;;;;;;;5032620;28;20113;-67
2024/01/24 08:43:59;;;;;;;18.95;3.90;;;;;;;;;;5031719;28;20021;-67
2024/01/24 08:46:25;;;;;;;25.85;3.90;;;;;;;;;;5032276;28;20057;-67
2024/01/24 08:48:51;;;;;;;12.73;2.90;;;;;;;;;;5031332;28;20497;-67
2024/01/24 08:51:17;;;;;;;17.00;3.38;;;;;;;;;;5031239;28;20026;-67
2024/01/24 08:53:42;;;;;;;23.63;4.22;;;;;;;;;;5032347;28;20493;-67
2024/01/24 08:56:09;;;;;;;24.40;4.10;;;;;;;;;;5030855;28;20053;-67
2024/01/24 08:58:37;;;;;;;25.10;4.35;;;;;;;;;;5043861;28;20040;-67
2024/01/24 09:01:02;;;;;;;17.23;3.50;;;;;;;;;;5051423;28;20065;-67
2024/01/24 09:03:28;;;;;;;18.48;4.05;;;;;;;;;;5051954;28;20064;-68
2024/01/24 09:05:53;;;;;;;19.73;3.50;;;;;;;;;;5051470;28;20025;-66
2024/01/24 09:08:19;;;;;;;20.58;3.25;;;;;;;;;;5049060;28;20086;-67
2024/01/24 09:10:44;;;;;;;17.23;4.10;;;;;;;;;;5051621;28;20083;-66
2024/01/24 09:13:09;;;;;;;16.55;3.25;;;;;;;;;;5050259;28;20029;-67
2024/01/24 09:15:35;;;;;;;20.85;3.45;;;;;;;;;;5051926;28;20025;-67
2024/01/24 09:18:00;;;;;;;21.33;4.05;;;;;;;;;;5039491;28;20437;-66
2024/01/24 09:20:26;;;;;;;24.25;3.80;;;;;;;;;;5032048;28;20061;-67
2024/01/24 09:22:53;;;;;;;16.85;2.92;;;;;;;;;;5029822;28;20064;-66
2024/01/24 09:25:19;;;;;;;17.27;3.58;;;;;;;;;;5031833;28;20449;-66
2024/01/24 09:27:45;;;;;;;19.83;3.90;;;;;;;;;;5031936;28;20466;-67
2024/01/24 09:30:10;;;;;;;19.33;3.40;;;;;;;;;;5030772;28;20040;-67
2024/01/24 09:32:36;;;;;;;19.63;4.05;;;;;;;;;;5031780;28;20060;-67
2024/01/24 09:35:01;;;;;;;14.45;3.35;;;;;;;;;;5031046;28;20456;-67
2024/01/24 09:37:27;;;;;;;18.40;3.88;;;;;;;;;;5037303;28;20028;-67
2024/01/24 09:39:52;;;;;;;17.40;3.83;;;;;;;;;;5050665;28;20039;-66
2024/01/24 09:42:27;;;;;;;21.60;3.38;;;;;;;;;;5051739;28;20035;-67
2024/01/24 09:44:57;;;;;;;16.33;3.75;;;;;;;;;;5051459;28;20033;-67
2024/01/24 09:47:24;;;;;;;24.38;3.75;;;;;;;;;;5044200;28;20089;-66
2024/01/24 09:49:51;;;;;;;24.13;4.50;;;;;;;;;;5045148;28;20051;-66
2024/01/24 09:52:24;;;;;;;24.42;4.57;;;;;;;;;;5051983;28;20100;-67
2024/01/24 09:54:55;;;;;;;19.27;3.28;;;;;;;;;;5050930;28;20032;-67
2024/01/24 09:57:22;;;;;;;15.02;3.50;;;;;;;;;;5043266;28;20433;-66
2024/01/24 09:59:48;;;;;;;18.83;3.55;;;;;;;;;;5031314;28;20037;-66
2024/01/24 10:02:14;;;;;;;20.33;3.67;;;;;;;;;;5031136;28;20049;-67
2024/01/24 10:04:42;;;;;;;20.77;3.67;;;;;;;;;;5030395;28;20033;-66
2024/01/24 10:07:08;;;;;;;18.83;3.63;;;;;;;;;;5035884;28;20039;-65
2024/01/24 10:09:34;;;;;;;20.20;4.20;;;;;;;;;;5055168;28;20025;-65
2024/01/24 10:11:59;;;;;;;26.02;3.90;;;;;;;;;;5054619;28;20096;-65
2024/01/24 10:14:24;;;;;;;15.35;3.78;;;;;;;;;;5055442;28;20039;-67
2024/01/24 10:16:50;;;;;;;17.33;3.65;;;;;;;;;;5051256;28;20033;-65
2024/01/24 10:19:21;;;;;;;17.00;3.53;;;;;;;;;;5034891;28;20043;-65
2024/01/24 10:21:47;;;;;;;19.75;4.00;;;;;;;;;;5035013;28;20064;-64
2024/01/24 10:24:13;;;;;;;15.43;3.85;;;;;;;;;;5034247;28;20033;-67
2024/01/24 10:26:38;;;;;;;24.48;3.42;;;;;;;;;;5035441;28;20095;-67
2024/01/24 10:29:04;;;;;;;21.65;3.40;;;;;;;;;;5047344;28;20036;-66
2024/01/24 10:31:30;;;;;;;19.25;3.72;;;;;;;;;;5035068;28;20125;-66
2024/01/24 10:33:58;;;;;;;19.20;3.97;;;;;;;;;;5034290;28;20053;-65
2024/01/24 10:36:23;;;;;;;17.80;4.05;;;;;;;;;;5034861;28;20137;-67
2024/01/24 10:38:51;;;;;;;16.35;3.65;;;;;;;;;;5035252;28;20041;-66
2024/01/24 10:41:17;;;;;;;18.90;3.42;;;;;;;;;;5052781;28;20040;-66
2024/01/24 10:43:47;;;;;;;17.65;3.47;;;;;;;;;;5054980;28;20392;-66
2024/01/24 10:46:14;;;;;;;15.53;3.83;;;;;;;;;;5052615;28;20110;-66
2024/01/24 10:48:41;;;;;;;18.98;3.65;;;;;;;;;;5033607;28;20285;-66
2024/01/24 10:51:06;;;;;;;25.20;3.80;;;;;;;;;;5033806;28;20033;-65
2024/01/24 10:53:34;;;;;;;21.30;3.72;;;;;;;;;;5034840;28;20450;-66
2024/01/24 10:56:01;;;;;;;13.40;3.22;;;;;;;;;;5033655;28;20044;-66
2024/01/24 10:58:28;;;;;;;18.33;3.63;;;;;;;;;;5052722;28;20025;-67
2024/01/24 11:00:54;;;;;;;21.10;3.88;;;;;;;;;;5053750;28;20397;-66
2024/01/24 11:03:20;;;;;;;22.85;3.95;;;;;;;;;;5054485;28;20029;-66
2024/01/24 11:05:50;;;;;;;20.55;3.88;;;;;;;;;;5054756;28;20043;-65
2024/01/24 11:08:51;;;;;;;16.65;3.38;;;;;;;;;;5049322;28;20487;-65
2024/01/24 11:11:19;;;;;;;16.42;3.78;;;;;;;;;;5053936;28;20029;-66
2024/01/24 11:13:46;;;;;;;19.75;3.70;;;;;;;;;;5040549;28;20030;-66
2024/01/24 11:16:30;;;;;;;19.50;3.85;;;;;;;;;;5033762;28;20284;-65
2024/01/24 11:19:18;;;;;;;15.65;3.45;;;;;;;;;;5039934;28;20033;-66
2024/01/24 11:21:43;;;;;;;20.33;4.13;;;;;;;;;;5043987;28;20025;-66
2024/01/24 11:24:09;;;;;;;25.45;4.13;;;;;;;;;;5032940;28;20028;-66
2024/01/24 11:26:54;;;;;;;14.30;3.58;;;;;;;;;;5034435;28;20524;-66
2024/01/24 11:29:20;;;;;;;14.00;3.33;;;;;;;;;;5033538;28;20052;-66
2024/01/24 11:31:45;;;;;;;19.45;3.78;;;;;;;;;;5034110;28;20112;-66
2024/01/24 11:34:12;;;;;;;22.35;3.67;;;;;;;;;;5042771;28;20021;-66
2024/01/24 11:36:53;;;;;;;17.20;3.25;;;;;;;;;;5052156;28;20033;-66
2024/01/24 11:39:35;;;;;;;12.25;3.17;;;;;;;;;;5053315;28;20041;-65
2024/01/24 11:42:33;;;;;;;26.70;4.18;;;;;;;;;;5052723;28;20040;-65
2024/01/24 11:45:19;;;;;;;16.05;3.63;;;;;;;;;;5035850;28;20037;-65
2024/01/24 11:47:46;;;;;;;19.77;3.65;;;;;;;;;;5033807;28;20375;-66
2024/01/24 11:50:11;;;;;;;24.13;3.80;;;;;;;;;;5032548;28;20378;-66
2024/01/24 11:52:37;;;;;;;12.80;3.17;;;;;;;;;;5033643;28;20029;-66
2024/01/24 11:55:03;;;;;;;19.27;3.75;;;;;;;;;;5042632;28;20054;-65
2024/01/24 11:57:29;;;;;;;18.33;3.70;;;;;;;;;;5040042;28;20033;-65
2024/01/24 11:59:55;;;;;;;16.63;3.67;;;;;;;;;;5033236;28;20030;-65
2024/01/24 12:02:21;;;;;;;17.27;4.53;;;;;;;;;;5032769;28;20118;-65
2024/01/24 12:04:50;;;;;;;16.38;3.75;;;;;;;;;;5038082;28;20088;-65
2024/01/24 12:07:15;;;;;;;18.77;3.38;;;;;;;;;;5032330;28;20037;-65
2024/01/24 12:09:41;;;;;;;20.80;4.40;;;;;;;;;;5033372;28;20040;-65
2024/01/24 12:12:09;;;;;;;15.25;3.20;;;;;;;;;;5031972;28;20509;-65
2024/01/24 12:14:35;;;;;;;20.48;3.85;;;;;;;;;;5033410;28;20060;-65
2024/01/24 12:17:01;;;;;;;17.27;4.07;;;;;;;;;;5032264;28;20025;-65
2024/01/24 12:19:29;;;;;;;19.75;3.83;;;;;;;;;;5032932;28;20040;-65
2024/01/24 12:21:55;;;;;;;20.98;3.80;;;;;;;;;;5032869;28;20053;-65
2024/01/24 12:24:21;;;;;;;19.75;3.75;;;;;;;;;;5032099;28;20450;-65
2024/01/24 12:26:46;;;;;;;14.50;3.95;;;;;;;;;;5051881;28;20041;-65
2024/01/24 12:29:12;;;;;;;16.10;3.65;;;;;;;;;;5050749;28;20139;-65
2024/01/24 12:31:40;;;;;;;25.08;3.85;;;;;;;;;;5031854;28;20030;-65
2024/01/24 12:34:08;;;;;;;20.90;4.40;;;;;;;;;;5032028;28;20083;-64
2024/01/24 12:36:33;;;;;;;19.45;3.65;;;;;;;;;;5032544;28;20026;-64
2024/01/24 12:38:59;;;;;;;15.02;3.50;;;;;;;;;;5031801;28;20398;-64
2024/01/24 12:41:24;;;;;;;18.20;3.28;;;;;;;;;;5032111;28;20083;-65
2024/01/24 12:43:50;;;;;;;16.63;3.55;;;;;;;;;;5033203;28;20026;-65
2024/01/24 12:46:15;;;;;;;27.85;5.07;;;;;;;;;;5031851;28;20076;-65
2024/01/24 12:48:41;;;;;;;16.52;3.55;;;;;;;;;;5032680;28;20057;-65
2024/01/24 12:51:07;;;;;;;19.65;3.72;;;;;;;;;;5031690;28;20029;-64
2024/01/24 12:53:35;;;;;;;15.48;3.47;;;;;;;;;;5034048;28;20037;-64
2024/01/24 12:56:01;;;;;;;17.02;3.88;;;;;;;;;;5051562;28;20126;-64
2024/01/24 12:58:26;;;;;;;23.73;3.60;;;;;;;;;;5052387;28;20457;-64
2024/01/24 13:00:52;;;;;;;21.33;4.25;;;;;;;;;;5052547;28;20033;-65
2024/01/24 13:03:17;;;;;;;15.40;3.00;;;;;;;;;;5049899;28;20681;-64
2024/01/24 13:05:42;;;;;;;15.48;3.28;;;;;;;;;;5049862;28;20033;-64
2024/01/24 13:08:09;;;;;;;22.77;3.47;;;;;;;;;;5051242;28;20060;-66
2024/01/24 13:10:36;;;;;;;14.57;3.55;;;;;;;;;;5052178;28;20040;-64
2024/01/24 13:13:04;;;;;;;14.63;3.03;;;;;;;;;;5051303;28;20043;-65
2024/01/24 13:15:32;;;;;;;14.10;3.28;;;;;;;;;;5050107;28;20389;-64
2024/01/24 13:17:58;;;;;;;19.10;3.75;;;;;;;;;;5051988;28;20057;-65
2024/01/24 13:20:23;;;;;;;17.80;3.83;;;;;;;;;;5050913;28;20064;-64
2024/01/24 13:22:48;;;;;;;16.60;3.50;;;;;;;;;;5051820;28;20047;-65
2024/01/24 13:25:14;;;;;;;14.77;3.45;;;;;;;;;;5048403;28;20033;-65
2024/01/24 13:27:43;;;;;;;19.80;3.38;;;;;;;;;;5052203;28;20029;-65
2024/01/24 13:30:09;;;;;;;24.10;4.15;;;;;;;;;;5050895;28;20025;-65
2024/01/24 13:32:34;;;;;;;18.30;3.58;;;;;;;;;;5034107;28;20107;-65
2024/01/24 13:35:00;;;;;;;13.48;3.10;;;;;;;;;;5042644;28;20490;-63
2024/01/24 13:37:25;;;;;;;21.20;3.33;;;;;;;;;;5050998;28;20055;-65
2024/01/24 13:39:51;;;;;;;14.82;3.60;;;;;;;;;;5051779;28;20029;-66
2024/01/24 13:42:16;;;;;;;16.35;4.53;;;;;;;;;;5036905;28;20041;-65
2024/01/24 13:44:41;;;;;;;17.50;3.67;;;;;;;;;;5031767;28;20026;-66
2024/01/24 13:47:07;;;;;;;22.02;4.07;;;;;;;;;;5031015;28;20037;-66
2024/01/24 13:49:32;;;;;;;18.75;3.55;;;;;;;;;;5031760;28;20025;-65
2024/01/24 13:51:58;;;;;;;16.23;3.20;;;;;;;;;;5040656;28;20469;-65
2024/01/24 13:54:23;;;;;;;19.98;3.63;;;;;;;;;;5050876;28;20051;-65
2024/01/24 13:56:49;;;;;;;17.58;3.28;;;;;;;;;;5051387;28;20051;-65
2024/01/24 13:59:14;;;;;;;19.65;3.20;;;;;;;;;;5050738;28;20454;-65
2024/01/24 14:01:39;;;;;;;18.02;2.95;;;;;;;;;;5048020;28;20025;-65
2024/01/24 14:04:05;;;;;;;10.38;3.10;;;;;;;;;;5050680;28;20029;-64
2024/01/24 14:06:30;;;;;;;16.88;3.22;;;;;;;;;;5051521;28;20027;-65
2024/01/24 14:08:56;;;;;;;16.83;3.40;;;;;;;;;;5051169;28;20087;-64
2024/01/24 14:11:21;;;;;;;18.45;3.60;;;;;;;;;;5048190;28;20543;-65
2024/01/24 14:13:48;;;;;;;16.80;3.10;;;;;;;;;;5036196;28;20102;-65
2024/01/24 14:16:14;;;;;;;15.52;3.72;;;;;;;;;;5051121;28;20043;-64
2024/01/24 14:18:40;;;;;;;13.18;3.42;;;;;;;;;;5052045;28;20461;-65
2024/01/24 14:21:05;;;;;;;13.32;3.17;;;;;;;;;;5052263;28;20037;-66
2024/01/24 14:23:31;;;;;;;13.73;3.05;;;;;;;;;;5034485;28;20038;-65
2024/01/24 14:25:56;;;;;;;15.23;3.10;;;;;;;;;;5032402;28;20033;-66
2024/01/24 14:28:21;;;;;;;14.82;3.58;;;;;;;;;;5030857;28;20404;-67
2024/01/24 14:30:47;;;;;;;20.20;4.53;;;;;;;;;;5031438;28;20029;-66